createdAt,value
2023-03-07T00:01:45.250Z,5.37
2023-03-07T00:04:14.336Z,5.07
2023-03-07T00:06:42.101Z,5.40
2023-03-07T00:09:11.079Z,6.00
2023-03-07T00:11:38.936Z,5.30
2023-03-07T00:14:08.838Z,5.87
2023-03-07T00:16:36.638Z,7.03
2023-03-07T00:19:05.113Z,6.03
2023-03-07T00:21:34.396Z,6.10
2023-03-07T00:24:02.159Z,6.60
2023-03-07T00:26:30.265Z,6.70
2023-03-07T00:28:58.029Z,6.70
2023-03-07T00:31:25.853Z,6.60
2023-03-07T00:33:53.635Z,5.73
2023-03-07T00:36:22.840Z,6.93
2023-03-07T00:38:52.415Z,6.87
2023-03-07T00:41:21.929Z,7.17
2023-03-07T00:43:49.816Z,7.30
2023-03-07T00:46:19.334Z,7.70
2023-03-07T00:48:47.905Z,7.07
2023-03-07T00:51:21.212Z,7.30
2023-03-07T00:53:49.677Z,8.23
2023-03-07T00:56:20.796Z,9.07
2023-03-07T00:58:49.233Z,8.97
2023-03-07T01:01:19.799Z,9.97
2023-03-07T01:03:49.643Z,9.30
2023-03-07T01:06:19.679Z,9.30
2023-03-07T01:08:47.789Z,9.37
2023-03-07T01:11:16.114Z,10.27
2023-03-07T01:13:45.422Z,9.03
2023-03-07T01:16:16.658Z,10.37
2023-03-07T01:18:45.760Z,10.77
2023-03-07T01:21:17.987Z,10.97
2023-03-07T01:23:45.828Z,11.90
2023-03-07T01:26:14.859Z,11.93
2023-03-07T01:28:43.042Z,11.30
2023-03-07T01:31:12.546Z,12.57
2023-03-07T01:33:40.904Z,11.90
2023-03-07T01:36:17.780Z,13.30
2023-03-07T01:38:45.598Z,13.20
2023-03-07T01:41:13.593Z,12.53
2023-03-07T01:43:41.824Z,13.63
2023-03-07T01:46:39.223Z,13.97
2023-03-07T01:49:12.436Z,13.47
2023-03-07T01:51:42.798Z,13.90
2023-03-07T01:54:14.416Z,13.93
2023-03-07T01:56:43.209Z,14.73
2023-03-07T01:59:11.007Z,14.30
2023-03-07T02:01:39.163Z,13.70
2023-03-07T02:04:14.145Z,14.03
2023-03-07T02:06:41.995Z,13.50
2023-03-07T02:09:15.593Z,15.77
2023-03-07T02:11:45.788Z,13.73
2023-03-07T02:14:13.501Z,14.83
2023-03-07T02:16:41.533Z,15.50
2023-03-07T02:19:24.505Z,15.17
2023-03-07T02:22:01.338Z,15.10
2023-03-07T02:24:36.811Z,16.60
2023-03-07T02:27:06.019Z,16.30
2023-03-07T02:29:33.800Z,16.90
2023-03-07T02:32:01.760Z,15.63
2023-03-07T02:34:31.790Z,16.77
2023-03-07T02:37:04.683Z,15.57
2023-03-07T02:39:32.948Z,16.60
2023-03-07T02:42:04.645Z,15.87
2023-03-07T02:44:33.879Z,15.83
2023-03-07T02:47:01.572Z,17.17
2023-03-07T02:49:29.372Z,16.83
2023-03-07T02:52:00.479Z,16.57
2023-03-07T02:54:28.296Z,17.87
2023-03-07T02:56:56.697Z,17.63
2023-03-07T02:59:24.399Z,17.13
2023-03-07T03:01:53.524Z,16.67
2023-03-07T03:04:21.247Z,16.87
2023-03-07T03:06:49.103Z,17.27
2023-03-07T03:09:17.024Z,17.20
2023-03-07T03:11:44.756Z,18.10
2023-03-07T03:14:12.456Z,17.67
2023-03-07T03:16:40.308Z,18.63
2023-03-07T03:19:09.561Z,17.83
2023-03-07T03:21:37.368Z,17.23
2023-03-07T03:24:06.722Z,17.97
2023-03-07T03:26:34.864Z,18.13
2023-03-07T03:29:03.428Z,19.40
2023-03-07T03:31:31.259Z,18.83
2023-03-07T03:33:59.838Z,18.57
2023-03-07T03:36:29.035Z,19.17
2023-03-07T03:38:58.299Z,18.13
2023-03-07T03:41:27.185Z,18.47
2023-03-07T03:43:55.055Z,17.53
2023-03-07T03:46:22.838Z,18.80
2023-03-07T03:48:54.306Z,17.77
2023-03-07T03:51:23.082Z,19.03
2023-03-07T03:53:52.845Z,20.10
2023-03-07T03:56:22.214Z,19.47
2023-03-07T03:58:51.494Z,18.20
2023-03-07T04:01:20.467Z,19.50
2023-03-07T04:03:50.870Z,21.07
2023-03-07T04:06:21.153Z,21.17
2023-03-07T04:08:49.410Z,20.93
2023-03-07T04:11:18.606Z,19.33
2023-03-07T04:13:46.386Z,19.67
2023-03-07T04:16:14.529Z,19.50
2023-03-07T04:18:42.925Z,19.97
2023-03-07T04:21:11.965Z,19.13
2023-03-07T04:23:39.871Z,19.67
2023-03-07T04:26:09.411Z,20.90
2023-03-07T04:28:46.407Z,20.17
2023-03-07T04:31:16.304Z,20.10
2023-03-07T04:33:44.895Z,20.33
2023-03-07T04:36:13.421Z,20.53
2023-03-07T04:38:42.422Z,20.00
2023-03-07T04:41:13.932Z,21.40
2023-03-07T04:43:43.198Z,19.87
2023-03-07T04:46:12.709Z,20.47
2023-03-07T04:48:40.543Z,19.43
2023-03-07T04:51:08.405Z,20.43
2023-03-07T04:53:36.198Z,19.07
2023-03-07T04:56:06.727Z,18.63
2023-03-07T04:58:35.485Z,18.80
2023-03-07T05:01:05.826Z,19.33
2023-03-07T05:03:34.403Z,19.77
2023-03-07T05:06:03.459Z,20.03
2023-03-07T05:08:32.091Z,17.93
2023-03-07T05:10:59.792Z,17.23
2023-03-07T05:13:27.685Z,17.87
2023-03-07T05:15:58.088Z,16.20
2023-03-07T05:18:27.891Z,16.37
2023-03-07T05:20:55.709Z,16.67
2023-03-07T05:23:23.760Z,16.03
2023-03-07T05:25:52.086Z,18.70
2023-03-07T05:28:20.087Z,16.67
2023-03-07T05:30:48.368Z,16.77
2023-03-07T05:33:16.666Z,16.97
2023-03-07T05:35:46.805Z,17.27
2023-03-07T05:38:14.941Z,16.07
2023-03-07T05:40:42.818Z,16.27
2023-03-07T05:43:10.610Z,16.17
2023-03-07T05:45:38.779Z,16.07
2023-03-07T05:48:06.855Z,16.27
2023-03-07T05:50:34.598Z,15.23
2023-03-07T05:53:04.355Z,15.00
2023-03-07T05:55:32.135Z,16.30
2023-03-07T05:57:59.785Z,14.73
2023-03-07T06:00:27.727Z,15.57
2023-03-07T06:02:55.548Z,14.83
2023-03-07T06:05:25.346Z,15.40
2023-03-07T06:07:53.296Z,15.47
2023-03-07T06:10:22.541Z,16.13
2023-03-07T06:12:51.099Z,15.93
2023-03-07T06:15:19.244Z,16.57
2023-03-07T06:17:47.072Z,15.23
2023-03-07T06:20:15.993Z,15.03
2023-03-07T06:22:43.710Z,14.73
2023-03-07T06:25:11.535Z,15.03
2023-03-07T06:27:41.167Z,13.20
2023-03-07T06:30:10.123Z,13.83
2023-03-07T06:32:38.006Z,14.27
2023-03-07T06:35:06.562Z,12.33
2023-03-07T06:37:34.303Z,12.37
2023-03-07T06:40:06.002Z,12.30
2023-03-07T06:42:33.732Z,14.30
2023-03-07T06:45:02.815Z,13.20
2023-03-07T06:47:31.014Z,12.43
2023-03-07T06:49:58.986Z,12.40
2023-03-07T06:52:26.683Z,13.60
2023-03-07T06:54:54.481Z,12.13
2023-03-07T06:57:22.309Z,12.67
2023-03-07T06:59:50.081Z,12.60
2023-03-07T07:02:19.343Z,11.97
2023-03-07T07:04:47.050Z,12.80
2023-03-07T07:07:14.735Z,12.30
2023-03-07T07:09:42.551Z,11.50
2023-03-07T07:12:10.379Z,12.70
2023-03-07T07:14:38.100Z,12.30
2023-03-07T07:17:05.953Z,11.40
2023-03-07T07:19:35.345Z,11.67
2023-03-07T07:22:03.090Z,10.90
2023-03-07T07:24:31.106Z,12.07
2023-03-07T07:26:58.860Z,10.90
2023-03-07T07:29:27.036Z,11.07
2023-03-07T07:31:55.112Z,10.00
2023-03-07T07:34:22.934Z,10.33
2023-03-07T07:36:53.090Z,11.23
2023-03-07T07:39:21.784Z,8.87
2023-03-07T07:41:49.537Z,9.27
2023-03-07T07:44:17.586Z,9.60
2023-03-07T07:46:45.380Z,10.53
2023-03-07T07:49:13.183Z,9.90
2023-03-07T07:51:41.089Z,10.13
2023-03-07T07:54:10.396Z,9.70
2023-03-07T07:56:38.138Z,9.20
2023-03-07T07:59:05.974Z,8.40
2023-03-07T08:01:34.055Z,7.17
2023-03-07T08:04:02.067Z,6.90
2023-03-07T08:06:30.720Z,6.73
2023-03-07T08:09:00.066Z,7.10
2023-03-07T08:11:29.330Z,8.83
2023-03-07T08:13:57.214Z,8.63
2023-03-07T08:16:26.090Z,8.03
2023-03-07T08:18:55.795Z,8.07
2023-03-07T08:21:24.339Z,8.23
2023-03-07T08:23:52.764Z,8.77
2023-03-07T08:26:20.501Z,8.53
2023-03-07T08:28:49.638Z,7.70
2023-03-07T08:31:19.383Z,8.07
2023-03-07T08:33:47.876Z,7.67
2023-03-07T08:36:16.214Z,7.43
2023-03-07T08:38:44.508Z,8.30
2023-03-07T08:41:12.313Z,9.30
2023-03-07T08:43:40.232Z,7.83
2023-03-07T08:46:09.434Z,8.80
2023-03-07T08:48:37.378Z,8.20
2023-03-07T08:51:07.082Z,7.73
2023-03-07T08:53:35.120Z,7.43
2023-03-07T08:56:07.285Z,6.97
2023-03-07T08:58:35.002Z,8.27
2023-03-07T09:01:03.551Z,8.83
2023-03-07T09:03:32.893Z,7.80
2023-03-07T09:06:00.666Z,7.70
2023-03-07T09:08:28.715Z,7.47
2023-03-07T09:10:57.452Z,7.67
2023-03-07T09:13:25.252Z,7.20
2023-03-07T09:15:53.387Z,7.57
2023-03-07T09:18:22.717Z,6.77
2023-03-07T09:20:51.940Z,5.77
2023-03-07T09:23:19.850Z,6.30
2023-03-07T09:25:47.593Z,7.00
2023-03-07T09:28:15.701Z,6.70
2023-03-07T09:30:43.453Z,5.70
2023-03-07T09:33:11.476Z,5.57
2023-03-07T09:35:39.645Z,5.03
2023-03-07T09:38:08.759Z,5.00
2023-03-07T09:40:36.587Z,5.00
2023-03-07T09:43:11.224Z,5.33
2023-03-07T09:45:54.595Z,4.77
2023-03-07T09:48:37.105Z,4.80
2023-03-07T09:51:16.961Z,4.60
2023-03-07T09:53:49.035Z,4.37
2023-03-07T09:56:23.323Z,4.10
2023-03-07T09:58:57.094Z,3.90
2023-03-07T10:01:28.832Z,3.87
2023-03-07T10:04:02.129Z,4.10
2023-03-07T10:06:36.064Z,4.27
2023-03-07T10:09:08.537Z,4.10
2023-03-07T10:11:56.447Z,4.53
2023-03-07T10:14:40.813Z,3.97
2023-03-07T10:17:17.144Z,4.47
2023-03-07T10:19:50.241Z,3.33
2023-03-07T10:22:25.578Z,3.70
2023-03-07T10:25:12.672Z,2.93
2023-03-07T10:27:40.792Z,2.97
2023-03-07T10:30:17.777Z,3.30
2023-03-07T10:32:47.445Z,2.87
2023-03-07T10:35:20.834Z,3.10
2023-03-07T10:37:53.883Z,2.80
2023-03-07T10:40:27.368Z,2.57
2023-03-07T10:42:55.829Z,2.30
2023-03-07T10:45:23.761Z,2.40
2023-03-07T10:47:51.604Z,2.47
2023-03-07T10:50:33.124Z,2.20
2023-03-07T10:53:04.370Z,1.60
2023-03-07T10:55:40.132Z,2.10
2023-03-07T10:58:22.787Z,2.00
2023-03-07T11:01:18.085Z,2.03
2023-03-07T11:03:54.198Z,1.60
2023-03-07T11:06:39.005Z,1.97
2023-03-07T11:09:19.671Z,2.37
2023-03-07T11:11:55.553Z,2.40
2023-03-07T11:14:24.167Z,1.50
2023-03-07T11:16:54.720Z,2.10
2023-03-07T11:19:30.210Z,1.50
2023-03-07T11:21:59.611Z,2.20
2023-03-07T11:24:29.498Z,1.87
2023-03-07T11:27:00.433Z,1.87
2023-03-07T11:29:29.355Z,1.67
2023-03-07T11:32:06.110Z,1.63
2023-03-07T11:34:41.618Z,1.70
2023-03-07T11:37:30.631Z,1.60
2023-03-07T11:40:22.887Z,1.93
2023-03-07T11:43:02.062Z,1.80
2023-03-07T11:45:38.256Z,2.20
2023-03-07T11:48:20.819Z,1.83
2023-03-07T11:50:55.075Z,2.00
2023-03-07T11:53:49.839Z,1.70
2023-03-07T11:56:25.663Z,1.33
2023-03-07T11:59:44.670Z,1.70
2023-03-07T12:02:36.753Z,1.60
2023-03-07T12:05:22.830Z,1.70
2023-03-07T12:08:05.780Z,1.70
2023-03-07T12:10:49.853Z,1.30
2023-03-07T12:13:34.065Z,1.30
2023-03-07T12:16:15.854Z,1.53
2023-03-07T12:19:02.509Z,1.30
2023-03-07T12:21:47.823Z,1.40
2023-03-07T12:24:23.210Z,1.80
2023-03-07T12:26:57.774Z,1.90
2023-03-07T12:29:36.621Z,1.67
2023-03-07T12:32:12.399Z,1.90
2023-03-07T12:34:43.537Z,1.30
2023-03-07T12:37:17.388Z,1.80
2023-03-07T12:39:50.577Z,2.00
2023-03-07T12:42:31.184Z,1.80
2023-03-07T12:45:01.830Z,2.10
2023-03-07T12:47:43.606Z,2.03
2023-03-07T12:50:18.702Z,2.07
2023-03-07T12:52:50.632Z,2.00
2023-03-07T12:55:24.477Z,1.40
2023-03-07T12:58:04.033Z,1.90
2023-03-07T13:00:32.980Z,1.70
2023-03-07T13:03:06.448Z,1.90
2023-03-07T13:05:37.857Z,1.40
2023-03-07T13:08:07.874Z,1.90
2023-03-07T13:10:36.163Z,1.63
2023-03-07T13:13:03.876Z,1.40
2023-03-07T13:16:03.456Z,1.60
2023-03-07T13:18:33.712Z,1.73
2023-03-07T13:21:15.527Z,1.33
2023-03-07T13:23:43.253Z,1.40
2023-03-07T13:26:13.432Z,1.10
2023-03-07T13:28:46.913Z,1.40
2023-03-07T13:31:52.972Z,1.30
2023-03-07T13:34:53.129Z,1.27
2023-03-07T13:37:54.499Z,1.10
2023-03-07T13:40:53.289Z,1.10
2023-03-07T13:44:00.093Z,1.00
2023-03-07T13:47:01.432Z,1.20
2023-03-07T13:49:41.704Z,1.00
2023-03-07T13:52:44.274Z,1.07
2023-03-07T13:55:28.137Z,1.30
2023-03-07T13:57:59.225Z,1.23
2023-03-07T14:00:38.462Z,1.20
2023-03-07T14:03:25.745Z,1.10
2023-03-07T14:05:55.385Z,1.10
2023-03-07T14:08:29.100Z,1.83
2023-03-07T14:10:57.411Z,1.30
2023-03-07T14:14:06.740Z,1.23
2023-03-07T14:16:47.113Z,1.30
2023-03-07T14:19:25.113Z,1.50
2023-03-07T14:21:58.621Z,1.20
2023-03-07T14:24:50.042Z,1.20
2023-03-07T14:27:17.708Z,1.47
2023-03-07T14:29:51.901Z,1.27
2023-03-07T14:32:23.167Z,1.30
2023-03-07T14:34:50.921Z,1.20
2023-03-07T14:37:22.313Z,1.47
2023-03-07T14:40:03.787Z,1.10
2023-03-07T14:42:36.231Z,1.40
2023-03-07T14:45:24.910Z,1.30
2023-03-07T14:48:25.601Z,1.30
2023-03-07T14:50:56.374Z,1.20
2023-03-07T14:53:26.759Z,1.50
2023-03-07T14:55:58.673Z,1.40
2023-03-07T14:58:29.255Z,1.20
2023-03-07T15:00:59.919Z,1.20
2023-03-07T15:03:27.783Z,1.00
2023-03-07T15:05:57.577Z,1.50
2023-03-07T15:08:26.897Z,1.70
2023-03-07T15:11:01.607Z,1.20
2023-03-07T15:13:33.180Z,1.20
2023-03-07T15:16:04.801Z,1.30
2023-03-07T15:18:36.774Z,1.40
2023-03-07T15:21:06.798Z,1.30
2023-03-07T15:23:35.057Z,1.30
2023-03-07T15:26:06.835Z,1.40
2023-03-07T15:28:36.843Z,1.83
2023-03-07T15:31:05.404Z,1.03
2023-03-07T15:33:34.579Z,1.73
2023-03-07T15:36:25.493Z,1.20
2023-03-07T15:39:13.499Z,1.50
2023-03-07T15:41:42.619Z,1.73
2023-03-07T15:44:21.305Z,1.53
2023-03-07T15:46:51.576Z,1.30
2023-03-07T15:49:22.923Z,1.47
2023-03-07T15:51:54.228Z,1.57
2023-03-07T15:54:30.768Z,1.73
2023-03-07T15:57:04.202Z,1.50
2023-03-07T15:59:34.601Z,1.40
2023-03-07T16:02:26.953Z,2.00
2023-03-07T16:04:54.914Z,1.53
2023-03-07T16:07:22.736Z,1.67
2023-03-07T16:09:50.496Z,2.00
2023-03-07T16:12:22.997Z,1.60
2023-03-07T16:14:52.886Z,1.70
2023-03-07T16:17:23.161Z,1.20
2023-03-07T16:19:50.915Z,1.53
2023-03-07T16:22:20.170Z,1.40
2023-03-07T16:24:48.021Z,1.60
2023-03-07T16:27:19.798Z,1.40
2023-03-07T16:29:48.082Z,1.50
2023-03-07T16:32:18.026Z,1.20
2023-03-07T16:34:46.034Z,1.53
2023-03-07T16:37:14.359Z,1.40
2023-03-07T16:39:42.146Z,1.70
2023-03-07T16:42:19.728Z,1.33
2023-03-07T16:44:50.023Z,1.77
2023-03-07T16:47:19.598Z,1.40
2023-03-07T16:49:47.671Z,1.30
2023-03-07T16:52:15.520Z,1.30
2023-03-07T16:54:43.293Z,1.40
2023-03-07T16:57:15.201Z,1.40
2023-03-07T16:59:46.653Z,1.50
2023-03-07T17:02:18.297Z,1.57
2023-03-07T17:04:46.472Z,1.67
2023-03-07T17:07:18.989Z,1.63
2023-03-07T17:09:47.160Z,1.70
2023-03-07T17:12:15.392Z,1.80
2023-03-07T17:14:43.525Z,2.03
2023-03-07T17:17:18.321Z,1.70
2023-03-07T17:19:46.245Z,1.73
2023-03-07T17:22:13.995Z,1.90
2023-03-07T17:24:41.694Z,1.97
2023-03-07T17:27:10.424Z,1.80
2023-03-07T17:29:41.941Z,1.90
2023-03-07T17:32:10.257Z,2.20
2023-03-07T17:34:39.737Z,1.93
2023-03-07T17:37:07.515Z,1.97
2023-03-07T17:39:36.098Z,2.00
2023-03-07T17:42:04.049Z,2.20
2023-03-07T17:44:32.679Z,1.90
2023-03-07T17:47:00.486Z,2.23
2023-03-07T17:49:34.031Z,2.13
2023-03-07T17:52:03.168Z,2.00
2023-03-07T17:54:31.679Z,1.80
2023-03-07T17:56:59.418Z,1.80
2023-03-07T17:59:27.234Z,2.03
2023-03-07T18:01:55.098Z,2.20
2023-03-07T18:04:22.900Z,2.20
2023-03-07T18:06:50.715Z,2.00
2023-03-07T18:09:22.892Z,2.50
2023-03-07T18:11:50.631Z,2.20
2023-03-07T18:14:18.477Z,1.97
2023-03-07T18:16:46.545Z,1.93
2023-03-07T18:19:25.398Z,2.30
2023-03-07T18:21:53.773Z,1.80
2023-03-07T18:24:26.364Z,1.77
2023-03-07T18:26:55.469Z,1.90
2023-03-07T18:29:23.871Z,1.60
2023-03-07T18:31:51.787Z,2.20
2023-03-07T18:34:19.481Z,2.37
2023-03-07T18:36:47.873Z,1.80
2023-03-07T18:39:15.673Z,1.83
2023-03-07T18:41:44.814Z,2.20
2023-03-07T18:44:12.736Z,1.57
2023-03-07T18:46:40.613Z,2.00
2023-03-07T18:49:09.249Z,1.80
2023-03-07T18:51:37.085Z,1.80
2023-03-07T18:54:08.962Z,1.80
2023-03-07T18:56:36.670Z,1.60
2023-03-07T18:59:05.830Z,1.80
2023-03-07T19:01:36.424Z,1.83
2023-03-07T19:04:05.601Z,1.63
2023-03-07T19:06:35.201Z,1.60
2023-03-07T19:09:04.015Z,2.10
2023-03-07T19:11:32.396Z,1.63
2023-03-07T19:14:00.702Z,1.70
2023-03-07T19:16:30.111Z,1.60
2023-03-07T19:18:59.854Z,1.70
2023-03-07T19:21:29.462Z,1.70
2023-03-07T19:23:59.449Z,2.00
2023-03-07T19:26:27.190Z,1.50
2023-03-07T19:28:56.195Z,2.07
2023-03-07T19:31:25.317Z,2.07
2023-03-07T19:33:55.079Z,1.53
2023-03-07T19:36:27.094Z,1.60
2023-03-07T19:38:59.011Z,1.63
2023-03-07T19:41:28.552Z,1.80
2023-03-07T19:43:57.285Z,1.67
2023-03-07T19:46:25.510Z,1.70
2023-03-07T19:48:54.757Z,2.07
2023-03-07T19:51:25.070Z,2.07
2023-03-07T19:53:56.979Z,1.93
2023-03-07T19:56:28.387Z,1.90
2023-03-07T19:58:56.863Z,2.40
2023-03-07T20:01:25.303Z,1.90
2023-03-07T20:03:55.459Z,2.00
2023-03-07T20:06:25.699Z,1.70
2023-03-07T20:08:54.891Z,2.03
2023-03-07T20:11:26.989Z,2.30
2023-03-07T20:13:56.265Z,2.63
2023-03-07T20:16:27.103Z,1.90
2023-03-07T20:18:59.595Z,2.00
2023-03-07T20:21:28.665Z,2.17
2023-03-07T20:23:59.252Z,2.07
2023-03-07T20:26:29.631Z,2.30
2023-03-07T20:28:58.090Z,4.60
2023-03-07T20:31:25.853Z,2.77
2023-03-07T20:33:53.833Z,2.43
2023-03-07T20:36:24.884Z,2.50
2023-03-07T20:38:55.062Z,2.17
2023-03-07T20:41:24.299Z,2.33
2023-03-07T20:43:53.359Z,2.40
2023-03-07T20:46:22.925Z,2.40
2023-03-07T20:48:52.032Z,3.30
2023-03-07T20:51:23.292Z,2.43
2023-03-07T20:53:53.093Z,2.57
2023-03-07T20:56:22.257Z,3.00
2023-03-07T20:58:50.450Z,2.43
2023-03-07T21:01:19.775Z,3.23
2023-03-07T21:03:49.156Z,2.30
2023-03-07T21:06:17.786Z,2.77
2023-03-07T21:08:48.447Z,2.80
2023-03-07T21:11:18.392Z,2.93
2023-03-07T21:13:48.421Z,2.93
2023-03-07T21:16:18.515Z,3.17
2023-03-07T21:18:47.015Z,2.77
2023-03-07T21:21:16.368Z,3.07
2023-03-07T21:23:44.791Z,3.30
2023-03-07T21:26:15.917Z,3.30
2023-03-07T21:28:44.278Z,2.70
2023-03-07T21:31:17.866Z,2.90
2023-03-07T21:33:47.353Z,2.87
2023-03-07T21:36:15.967Z,3.30
2023-03-07T21:38:44.935Z,3.20
2023-03-07T21:41:14.850Z,2.90
2023-03-07T21:43:42.997Z,3.40
2023-03-07T21:46:13.181Z,2.83
2023-03-07T21:48:41.563Z,3.10
2023-03-07T21:51:10.239Z,2.90
2023-03-07T21:53:38.320Z,3.27
2023-03-07T21:56:08.381Z,3.33
2023-03-07T21:58:37.886Z,3.70
2023-03-07T22:01:12.659Z,3.30
2023-03-07T22:03:41.137Z,3.07
2023-03-07T22:06:09.935Z,3.23
2023-03-07T22:08:38.381Z,2.90
2023-03-07T22:11:07.991Z,3.20
2023-03-07T22:13:39.549Z,3.23
2023-03-07T22:16:09.371Z,3.20
2023-03-07T22:18:37.590Z,2.90
2023-03-07T22:21:09.848Z,3.27
2023-03-07T22:23:38.214Z,3.03
2023-03-07T22:26:07.115Z,3.10
2023-03-07T22:28:35.160Z,2.60
2023-03-07T22:31:05.733Z,3.03
2023-03-07T22:33:34.321Z,3.80
2023-03-07T22:36:04.211Z,3.10
2023-03-07T22:38:32.182Z,3.33
2023-03-07T22:41:02.370Z,3.40
2023-03-07T22:43:31.925Z,3.30
2023-03-07T22:45:59.810Z,3.20
2023-03-07T22:48:29.681Z,2.93
2023-03-07T22:50:58.168Z,3.13
2023-03-07T22:53:29.181Z,3.10
2023-03-07T22:55:59.094Z,2.70
2023-03-07T22:58:27.275Z,2.90
2023-03-07T23:00:55.156Z,2.83
2023-03-07T23:03:23.384Z,3.47
2023-03-07T23:05:52.706Z,2.73
2023-03-07T23:08:20.568Z,3.60
2023-03-07T23:10:48.362Z,2.80
2023-03-07T23:13:17.179Z,2.83
2023-03-07T23:15:45.145Z,3.03
2023-03-07T23:18:13.069Z,2.80
2023-03-07T23:20:40.880Z,2.63
2023-03-07T23:23:10.296Z,2.93
2023-03-07T23:25:42.182Z,3.00
2023-03-07T23:28:10.393Z,2.83
2023-03-07T23:30:38.988Z,3.63
2023-03-07T23:33:07.272Z,2.70
2023-03-07T23:35:35.783Z,3.00
2023-03-07T23:38:04.438Z,3.20
2023-03-07T23:40:37.232Z,2.83
2023-03-07T23:43:05.525Z,3.17
2023-03-07T23:45:33.604Z,2.70
2023-03-07T23:48:01.395Z,3.50
2023-03-07T23:50:29.193Z,2.93
2023-03-07T23:52:56.953Z,2.87
2023-03-07T23:55:24.892Z,3.10
2023-03-07T23:57:54.073Z,2.63
